createdAt,value
2022-08-30T00:01:15.263Z,0.00
2022-08-30T00:02:00.165Z,0.00
2022-08-30T00:02:59.963Z,0.00
2022-08-30T00:03:59.930Z,0.00
2022-08-30T00:05:03.153Z,0.00
2022-08-30T00:05:59.893Z,0.00
2022-08-30T00:07:07.026Z,0.00
2022-08-30T00:07:59.861Z,0.00
2022-08-30T00:09:07.062Z,0.00
2022-08-30T00:10:06.986Z,0.00
2022-08-30T00:11:06.870Z,0.00
2022-08-30T00:11:59.816Z,0.00
2022-08-30T00:13:00.827Z,0.00
2022-08-30T00:14:00.034Z,0.00
2022-08-30T00:15:07.293Z,0.00
2022-08-30T00:15:59.786Z,0.00
2022-08-30T00:16:59.757Z,0.00
2022-08-30T00:17:59.745Z,0.00
2022-08-30T00:18:59.968Z,0.00
2022-08-30T00:19:59.785Z,0.00
2022-08-30T00:21:00.764Z,0.00
2022-08-30T00:22:02.721Z,0.00
2022-08-30T00:23:00.706Z,0.00
2022-08-30T00:24:00.684Z,0.00
2022-08-30T00:25:00.910Z,0.00
2022-08-30T00:25:59.932Z,0.00
2022-08-30T00:26:59.651Z,0.00
2022-08-30T00:28:00.633Z,0.00
2022-08-30T00:28:59.625Z,0.00
2022-08-30T00:30:00.647Z,0.00
2022-08-30T00:31:06.802Z,0.00
2022-08-30T00:31:59.846Z,0.00
2022-08-30T00:33:06.840Z,0.00
2022-08-30T00:34:00.839Z,0.00
2022-08-30T00:34:59.837Z,0.00
2022-08-30T00:36:00.579Z,0.00
2022-08-30T00:36:59.542Z,0.00
2022-08-30T00:37:59.578Z,0.00
2022-08-30T00:38:59.534Z,0.00
2022-08-30T00:40:00.572Z,0.00
2022-08-30T00:41:06.591Z,0.00
2022-08-30T00:41:59.512Z,0.00
2022-08-30T00:43:05.689Z,0.00
2022-08-30T00:44:14.749Z,0.00
2022-08-30T00:44:59.471Z,0.00
2022-08-30T00:46:06.641Z,0.00
2022-08-30T00:46:59.452Z,0.00
2022-08-30T00:47:59.456Z,0.00
2022-08-30T00:49:23.439Z,0.00
2022-08-30T00:49:59.410Z,0.00
2022-08-30T00:51:00.430Z,0.00
2022-08-30T00:51:59.396Z,0.00
2022-08-30T00:53:06.453Z,0.00
2022-08-30T00:53:59.383Z,0.00
2022-08-30T00:55:00.322Z,0.00
2022-08-30T00:55:59.601Z,0.00
2022-08-30T00:57:00.588Z,0.00
2022-08-30T00:58:01.358Z,0.00
2022-08-30T00:58:59.615Z,0.00
2022-08-30T00:59:59.519Z,0.00
2022-08-30T01:00:59.538Z,0.00
2022-08-30T01:01:59.593Z,0.00
2022-08-30T01:02:59.614Z,0.00
2022-08-30T01:03:59.521Z,0.00
2022-08-30T01:04:59.255Z,0.00
2022-08-30T01:05:59.286Z,0.00
2022-08-30T01:07:06.363Z,0.00
2022-08-30T01:08:00.498Z,0.00
2022-08-30T01:08:59.221Z,0.00
2022-08-30T01:10:02.229Z,0.00
2022-08-30T01:10:59.433Z,0.00
2022-08-30T01:11:59.201Z,0.00
2022-08-30T01:12:59.181Z,0.00
2022-08-30T01:13:59.429Z,0.00
2022-08-30T01:15:00.472Z,0.00
2022-08-30T01:15:59.199Z,0.00
2022-08-30T01:16:59.135Z,0.00
2022-08-30T01:18:00.145Z,0.00
2022-08-30T01:19:02.151Z,0.00
2022-08-30T01:19:59.379Z,0.00
2022-08-30T01:20:59.107Z,0.00
2022-08-30T01:21:59.069Z,0.00
2022-08-30T01:22:59.079Z,0.00
2022-08-30T01:24:00.089Z,0.00
2022-08-30T01:24:59.307Z,0.00
2022-08-30T01:25:59.093Z,0.00
2022-08-30T01:27:02.063Z,0.00
2022-08-30T01:28:02.295Z,0.00
2022-08-30T01:28:58.995Z,0.00
2022-08-30T01:29:59.229Z,0.00
2022-08-30T01:30:59.060Z,0.00
2022-08-30T01:32:02.251Z,0.00
2022-08-30T01:33:06.385Z,0.00
2022-08-30T01:34:01.998Z,0.00
2022-08-30T01:34:59.982Z,0.00
2022-08-30T01:35:58.939Z,0.00
2022-08-30T01:37:01.965Z,0.00
2022-08-30T01:38:00.218Z,0.00
2022-08-30T01:39:02.158Z,0.00
2022-08-30T01:40:02.042Z,0.00
2022-08-30T01:40:58.903Z,0.00
2022-08-30T01:41:59.103Z,0.00
2022-08-30T01:42:58.891Z,0.00
2022-08-30T01:43:59.086Z,0.00
2022-08-30T01:44:59.127Z,0.00
2022-08-30T01:45:58.894Z,0.00
2022-08-30T01:47:00.045Z,0.00
2022-08-30T01:47:59.843Z,0.00
2022-08-30T01:48:58.799Z,0.00
2022-08-30T01:49:58.795Z,0.00
2022-08-30T01:50:58.826Z,0.00
2022-08-30T01:52:00.260Z,0.00
2022-08-30T01:52:59.777Z,0.00
2022-08-30T01:54:05.978Z,0.00
2022-08-30T01:54:58.809Z,0.00
2022-08-30T01:55:58.740Z,0.00
2022-08-30T01:56:58.982Z,0.00
2022-08-30T01:57:58.928Z,0.00
2022-08-30T01:59:13.969Z,0.00
2022-08-30T02:00:05.945Z,0.00
2022-08-30T02:00:58.703Z,0.00
2022-08-30T02:01:58.682Z,0.00
2022-08-30T02:02:59.683Z,0.00
2022-08-30T02:04:01.787Z,0.00
2022-08-30T02:04:58.658Z,0.00
2022-08-30T02:05:58.872Z,0.00
2022-08-30T02:06:58.643Z,0.00
2022-08-30T02:07:58.873Z,0.00
2022-08-30T02:08:58.782Z,0.00
2022-08-30T02:10:01.856Z,0.00
2022-08-30T02:11:01.613Z,0.00
2022-08-30T02:12:01.588Z,0.00
2022-08-30T02:12:58.836Z,0.00
2022-08-30T02:14:06.083Z,0.00
2022-08-30T02:14:59.745Z,0.00
2022-08-30T02:15:58.752Z,0.00
2022-08-30T02:17:01.600Z,0.00
2022-08-30T02:17:58.765Z,0.00
2022-08-30T02:18:58.564Z,0.00
2022-08-30T02:19:58.500Z,0.00
2022-08-30T02:20:58.473Z,0.00
2022-08-30T02:21:58.683Z,0.00
2022-08-30T02:23:00.839Z,0.00
2022-08-30T02:23:58.702Z,0.00
2022-08-30T02:24:58.839Z,0.00
2022-08-30T02:25:59.427Z,0.00
2022-08-30T02:26:58.633Z,0.00
2022-08-30T02:27:58.399Z,0.00
2022-08-30T02:28:59.671Z,0.00
2022-08-30T02:29:58.638Z,0.00
2022-08-30T02:31:13.742Z,0.00
2022-08-30T02:31:58.618Z,0.00
2022-08-30T02:32:58.344Z,0.00
2022-08-30T02:34:01.360Z,0.00
2022-08-30T02:34:58.585Z,0.00
2022-08-30T02:36:05.529Z,0.00
2022-08-30T02:36:58.558Z,0.00
2022-08-30T02:38:01.334Z,0.00
2022-08-30T02:38:59.308Z,0.00
2022-08-30T02:39:58.377Z,0.00
2022-08-30T02:40:59.536Z,0.00
2022-08-30T02:41:58.269Z,0.00
2022-08-30T02:42:59.585Z,0.00
2022-08-30T02:43:58.699Z,0.00
2022-08-30T02:44:58.251Z,0.00
2022-08-30T02:45:58.282Z,0.00
2022-08-30T02:46:58.221Z,0.00
2022-08-30T02:47:59.216Z,0.00
2022-08-30T02:49:05.638Z,0.00
2022-08-30T02:49:59.181Z,0.00
2022-08-30T02:50:58.428Z,0.00
2022-08-30T02:52:20.182Z,0.00
2022-08-30T02:53:06.433Z,0.00
2022-08-30T02:54:13.761Z,0.00
2022-08-30T02:55:05.461Z,0.00
2022-08-30T02:55:59.372Z,0.00
2022-08-30T02:56:58.121Z,0.00
2022-08-30T02:57:58.096Z,0.00
2022-08-30T02:58:58.095Z,0.00
2022-08-30T02:59:59.093Z,0.00
2022-08-30T03:00:59.399Z,0.00
2022-08-30T03:01:58.077Z,0.00
2022-08-30T03:02:59.112Z,0.00
2022-08-30T03:04:01.115Z,0.00
2022-08-30T03:05:01.053Z,0.00
2022-08-30T03:06:01.081Z,0.00
2022-08-30T03:06:58.068Z,0.00
2022-08-30T03:07:58.231Z,0.00
2022-08-30T03:09:01.253Z,0.00
2022-08-30T03:09:58.204Z,0.00
2022-08-30T03:10:57.969Z,0.00
2022-08-30T03:11:58.181Z,0.00
2022-08-30T03:12:58.205Z,0.00
2022-08-30T03:14:05.182Z,0.00
2022-08-30T03:14:58.157Z,0.00
2022-08-30T03:15:58.164Z,0.00
2022-08-30T03:16:57.948Z,0.00
2022-08-30T03:17:58.150Z,0.00
2022-08-30T03:18:58.923Z,0.00
2022-08-30T03:19:58.096Z,0.00
2022-08-30T03:21:00.932Z,0.00
2022-08-30T03:22:01.095Z,0.00
2022-08-30T03:22:58.076Z,0.00
2022-08-30T03:23:57.848Z,0.00
2022-08-30T03:25:00.877Z,0.00
2022-08-30T03:25:57.817Z,0.00
2022-08-30T03:26:59.047Z,0.00
2022-08-30T03:27:57.833Z,0.00
2022-08-30T03:28:57.790Z,0.00
2022-08-30T03:29:57.768Z,0.00
2022-08-30T03:30:57.997Z,0.00
2022-08-30T03:32:05.007Z,0.00
2022-08-30T03:32:57.742Z,0.00
2022-08-30T03:33:57.756Z,0.00
2022-08-30T03:34:58.738Z,0.00
2022-08-30T03:35:57.970Z,0.00
2022-08-30T03:36:57.946Z,0.00
2022-08-30T03:38:18.689Z,0.00
2022-08-30T03:38:57.703Z,0.00
2022-08-30T03:40:00.763Z,0.00
2022-08-30T03:40:58.891Z,0.00
2022-08-30T03:41:57.887Z,0.00
2022-08-30T03:43:04.954Z,0.00
2022-08-30T03:43:58.878Z,0.00
2022-08-30T03:44:57.860Z,0.00
2022-08-30T03:45:57.659Z,0.00
2022-08-30T03:46:57.620Z,0.00
2022-08-30T03:48:00.633Z,0.00
2022-08-30T03:49:00.628Z,0.00
2022-08-30T03:49:57.901Z,0.00
2022-08-30T03:51:06.007Z,0.00
2022-08-30T03:51:57.552Z,0.00
2022-08-30T03:52:58.768Z,0.00
2022-08-30T03:54:00.555Z,0.00
2022-08-30T03:54:57.535Z,0.00
2022-08-30T03:55:57.744Z,0.00
2022-08-30T03:56:57.495Z,0.00
2022-08-30T03:57:57.484Z,0.00
2022-08-30T03:58:57.486Z,0.00
2022-08-30T03:59:58.462Z,0.00
2022-08-30T04:00:57.511Z,0.00
2022-08-30T04:02:04.715Z,0.00
2022-08-30T04:02:57.682Z,0.00
2022-08-30T04:04:04.705Z,0.00
2022-08-30T04:04:57.631Z,0.00
2022-08-30T04:05:57.452Z,0.00
2022-08-30T04:07:00.657Z,0.00
2022-08-30T04:07:58.393Z,0.00
2022-08-30T04:08:57.376Z,0.00
2022-08-30T04:09:57.424Z,0.00
2022-08-30T04:10:58.367Z,0.00
2022-08-30T04:11:57.358Z,0.00
2022-08-30T04:13:12.814Z,0.00
2022-08-30T04:13:58.566Z,0.00
2022-08-30T04:14:58.554Z,0.00
2022-08-30T04:15:57.346Z,0.00
2022-08-30T04:16:57.531Z,0.00
2022-08-30T04:18:18.291Z,0.00
2022-08-30T04:18:58.296Z,0.00
2022-08-30T04:20:00.457Z,0.00
2022-08-30T04:20:57.490Z,0.00
2022-08-30T04:21:57.252Z,0.00
2022-08-30T04:22:57.487Z,0.00
2022-08-30T04:24:00.460Z,0.00
2022-08-30T04:24:57.223Z,0.00
2022-08-30T04:26:00.502Z,0.00
2022-08-30T04:26:57.181Z,0.00
2022-08-30T04:27:57.428Z,0.00
2022-08-30T04:28:58.188Z,0.00
2022-08-30T04:30:00.262Z,0.00
2022-08-30T04:31:12.608Z,0.00
2022-08-30T04:32:00.278Z,0.00
2022-08-30T04:32:58.846Z,0.00
2022-08-30T04:33:58.119Z,0.00
2022-08-30T04:34:57.142Z,0.00
2022-08-30T04:35:57.329Z,0.00
2022-08-30T04:37:12.760Z,0.00
2022-08-30T04:37:57.105Z,0.00
2022-08-30T04:39:00.102Z,0.00
2022-08-30T04:39:58.335Z,0.00
2022-08-30T04:40:57.275Z,0.00
2022-08-30T04:42:00.293Z,0.00
2022-08-30T04:42:57.284Z,0.00
2022-08-30T04:43:57.043Z,0.00
2022-08-30T04:44:57.018Z,0.00
2022-08-30T04:46:00.377Z,0.00
2022-08-30T04:47:00.235Z,5.62
2022-08-30T04:48:04.032Z,5.62
2022-08-30T04:48:56.972Z,5.62
2022-08-30T04:49:56.972Z,5.62
2022-08-30T04:50:56.935Z,5.62
2022-08-30T04:51:56.913Z,5.62
2022-08-30T04:52:59.975Z,5.62
2022-08-30T04:53:57.904Z,5.62
2022-08-30T04:54:56.930Z,5.62
2022-08-30T04:55:56.903Z,5.62
2022-08-30T04:56:58.133Z,5.62
2022-08-30T04:57:57.101Z,5.62
2022-08-30T04:58:56.853Z,5.62
2022-08-30T04:59:57.128Z,5.62
2022-08-30T05:00:57.121Z,5.62
2022-08-30T05:01:56.843Z,5.62
2022-08-30T05:02:56.866Z,5.62
2022-08-30T05:03:56.795Z,11.25
2022-08-30T05:04:56.847Z,11.25
2022-08-30T05:05:56.794Z,11.25
2022-08-30T05:06:56.801Z,11.25
2022-08-30T05:07:56.813Z,11.25
2022-08-30T05:09:00.026Z,11.25
2022-08-30T05:09:59.784Z,11.25
2022-08-30T05:10:57.030Z,11.25
2022-08-30T05:11:56.967Z,11.25
2022-08-30T05:12:57.724Z,11.25
2022-08-30T05:13:57.696Z,11.25
2022-08-30T05:14:59.949Z,11.25
2022-08-30T05:15:56.985Z,11.25
2022-08-30T05:16:56.721Z,11.25
2022-08-30T05:17:59.678Z,11.25
2022-08-30T05:18:57.659Z,16.88
2022-08-30T05:19:56.903Z,16.88
2022-08-30T05:20:56.660Z,16.88
2022-08-30T05:21:56.634Z,16.88
2022-08-30T05:22:56.858Z,16.88
2022-08-30T05:23:56.932Z,16.88
2022-08-30T05:25:04.009Z,16.88
2022-08-30T05:25:57.872Z,16.88
2022-08-30T05:26:56.853Z,16.88
2022-08-30T05:28:03.980Z,16.88
2022-08-30T05:28:56.814Z,16.88
2022-08-30T05:29:56.522Z,16.88
2022-08-30T05:30:57.674Z,16.88
2022-08-30T05:31:56.781Z,16.88
2022-08-30T05:32:56.756Z,16.88
2022-08-30T05:33:57.744Z,16.88
2022-08-30T05:34:59.763Z,16.88
2022-08-30T05:35:57.710Z,16.88
2022-08-30T05:36:56.704Z,16.88
2022-08-30T05:37:56.694Z,22.50
2022-08-30T05:38:56.448Z,22.50
2022-08-30T05:39:56.726Z,22.50
2022-08-30T05:41:08.282Z,22.50
2022-08-30T05:41:57.468Z,22.50
2022-08-30T05:42:56.423Z,22.50
2022-08-30T05:43:56.395Z,22.50
2022-08-30T05:44:56.624Z,22.50
2022-08-30T05:45:56.596Z,22.50
2022-08-30T05:46:59.438Z,22.50
2022-08-30T05:47:57.632Z,22.50
2022-08-30T05:48:56.365Z,22.50
2022-08-30T05:49:56.557Z,28.12
2022-08-30T05:50:56.573Z,28.12
2022-08-30T05:51:56.535Z,28.12
2022-08-30T05:52:57.314Z,28.12
2022-08-30T05:53:56.292Z,28.12
2022-08-30T05:54:56.294Z,28.12
2022-08-30T05:55:56.417Z,28.12
2022-08-30T05:56:56.504Z,28.12
2022-08-30T05:57:56.301Z,28.12
2022-08-30T05:58:56.484Z,28.12
2022-08-30T05:59:56.241Z,28.12
2022-08-30T06:00:56.218Z,28.12
2022-08-30T06:01:56.272Z,33.75
2022-08-30T06:02:57.353Z,33.75
2022-08-30T06:03:59.318Z,33.75
2022-08-30T06:04:57.206Z,33.75
2022-08-30T06:05:57.448Z,33.75
2022-08-30T06:06:59.209Z,33.75
2022-08-30T06:07:57.356Z,33.75
2022-08-30T06:08:56.138Z,33.75
2022-08-30T06:09:56.142Z,33.75
2022-08-30T06:10:57.277Z,33.75
2022-08-30T06:11:59.138Z,33.75
2022-08-30T06:12:59.365Z,39.38
2022-08-30T06:13:56.311Z,39.38
2022-08-30T06:14:56.100Z,39.38
2022-08-30T06:15:56.075Z,39.38
2022-08-30T06:16:57.084Z,39.38
2022-08-30T06:17:57.084Z,39.38
2022-08-30T06:18:57.035Z,39.38
2022-08-30T06:19:56.057Z,39.38
2022-08-30T06:20:56.012Z,39.38
2022-08-30T06:22:03.348Z,39.38
2022-08-30T06:22:57.029Z,45.00
2022-08-30T06:23:59.049Z,45.00
2022-08-30T06:24:57.835Z,45.00
2022-08-30T06:25:55.995Z,45.00
2022-08-30T06:26:56.182Z,45.00
2022-08-30T06:27:56.964Z,45.00
2022-08-30T06:28:59.219Z,50.62
2022-08-30T06:29:56.147Z,50.62
2022-08-30T06:30:55.976Z,50.62
2022-08-30T06:31:55.928Z,50.62
2022-08-30T06:32:56.145Z,50.62
2022-08-30T06:33:57.081Z,50.62
2022-08-30T06:35:17.559Z,50.62
2022-08-30T06:35:59.113Z,56.25
2022-08-30T06:36:57.111Z,56.25
2022-08-30T06:37:56.085Z,56.25
2022-08-30T06:39:03.244Z,56.25
2022-08-30T06:39:56.916Z,56.25
2022-08-30T06:40:58.885Z,50.62
2022-08-30T06:41:55.834Z,50.62
2022-08-30T06:42:57.022Z,50.62
2022-08-30T06:43:55.814Z,50.62
2022-08-30T06:44:58.808Z,45.00
2022-08-30T06:45:55.756Z,45.00
2022-08-30T06:46:56.078Z,45.00
2022-08-30T06:48:56.991Z,45.00
2022-08-30T06:49:58.985Z,50.62
2022-08-30T06:51:11.045Z,50.62
2022-08-30T06:51:55.929Z,50.62
2022-08-30T06:53:16.935Z,50.62
2022-08-30T06:53:56.687Z,56.25
2022-08-30T06:54:55.906Z,56.25
2022-08-30T06:55:56.692Z,56.25
2022-08-30T06:56:58.561Z,61.88
2022-08-30T06:57:55.658Z,61.88
2022-08-30T06:58:58.649Z,67.50
2022-08-30T06:59:57.249Z,73.12
2022-08-30T07:00:55.599Z,73.12
2022-08-30T07:01:56.699Z,73.12
2022-08-30T07:02:55.889Z,73.12
2022-08-30T07:03:55.795Z,78.75
2022-08-30T07:04:58.814Z,78.75
2022-08-30T07:05:55.549Z,78.75
2022-08-30T07:06:56.777Z,78.75
2022-08-30T07:07:55.785Z,78.75
2022-08-30T07:08:56.194Z,78.75
2022-08-30T07:09:55.550Z,78.75
2022-08-30T07:10:55.501Z,73.12
2022-08-30T07:12:02.631Z,67.50
2022-08-30T07:12:55.546Z,67.50
2022-08-30T07:13:58.504Z,67.50
2022-08-30T07:14:55.712Z,67.50
2022-08-30T07:15:55.771Z,67.50
2022-08-30T07:16:55.431Z,73.12
2022-08-30T07:18:02.630Z,73.12
2022-08-30T07:18:55.662Z,73.12
2022-08-30T07:19:55.416Z,78.75
2022-08-30T07:20:55.403Z,78.75
2022-08-30T07:21:55.413Z,84.38
2022-08-30T07:22:58.436Z,84.38
2022-08-30T07:23:55.373Z,84.38
2022-08-30T07:24:55.375Z,84.38
2022-08-30T07:25:55.354Z,84.38
2022-08-30T07:27:02.744Z,84.38
2022-08-30T07:27:55.336Z,84.38
2022-08-30T07:28:55.865Z,84.38
2022-08-30T07:29:55.572Z,90.00
2022-08-30T07:30:55.557Z,90.00
2022-08-30T07:31:55.280Z,90.00
2022-08-30T07:32:55.312Z,90.00
2022-08-30T07:33:58.526Z,90.00
2022-08-30T07:34:55.278Z,90.00
2022-08-30T07:35:56.280Z,95.62
2022-08-30T07:36:55.467Z,95.62
2022-08-30T07:37:56.230Z,95.62
2022-08-30T07:38:56.464Z,95.62
2022-08-30T07:39:58.258Z,90.00
2022-08-30T07:40:55.483Z,90.00
2022-08-30T07:42:10.708Z,95.62
2022-08-30T07:42:55.164Z,95.62
2022-08-30T07:43:55.154Z,95.62
2022-08-30T07:44:56.941Z,95.62
2022-08-30T07:45:55.421Z,101.25
2022-08-30T07:47:02.526Z,106.88
2022-08-30T07:47:55.371Z,112.50
2022-08-30T07:48:56.376Z,112.50
2022-08-30T07:49:55.370Z,118.12
2022-08-30T07:50:58.334Z,112.50
2022-08-30T07:51:55.327Z,112.50
2022-08-30T07:52:55.312Z,118.12
2022-08-30T07:53:55.059Z,118.12
2022-08-30T07:54:55.056Z,123.75
2022-08-30T07:55:56.072Z,123.75
2022-08-30T07:56:55.035Z,118.12
2022-08-30T07:57:55.268Z,112.50
2022-08-30T07:58:56.255Z,112.50
2022-08-30T07:59:56.253Z,106.88
2022-08-30T08:00:55.988Z,101.25
2022-08-30T08:01:55.364Z,95.62
2022-08-30T08:03:16.984Z,95.62
2022-08-30T08:03:55.037Z,95.62
2022-08-30T08:04:54.940Z,101.25
2022-08-30T08:05:55.168Z,101.25
2022-08-30T08:06:57.958Z,106.88
2022-08-30T08:07:55.173Z,106.88
2022-08-30T08:08:55.149Z,101.25
2022-08-30T08:09:54.892Z,101.25
2022-08-30T08:11:02.052Z,101.25
2022-08-30T08:11:54.893Z,106.88
2022-08-30T08:12:54.868Z,106.88
2022-08-30T08:13:55.163Z,106.88
2022-08-30T08:15:10.169Z,112.50
2022-08-30T08:15:56.199Z,118.12
2022-08-30T08:16:54.826Z,118.12
2022-08-30T08:17:54.850Z,118.12
2022-08-30T08:18:56.047Z,118.12
2022-08-30T08:19:55.845Z,118.12
2022-08-30T08:20:55.991Z,118.12
2022-08-30T08:22:15.608Z,118.12
2022-08-30T08:22:56.011Z,118.12
2022-08-30T08:23:54.998Z,118.12
2022-08-30T08:24:54.767Z,118.12
2022-08-30T08:25:54.729Z,118.12
2022-08-30T08:26:54.704Z,118.12
2022-08-30T08:27:54.706Z,112.50
2022-08-30T08:28:54.954Z,112.50
2022-08-30T08:29:54.912Z,112.50
2022-08-30T08:31:01.841Z,106.88
2022-08-30T08:31:54.664Z,106.88
2022-08-30T08:33:10.016Z,106.88
2022-08-30T08:33:54.987Z,106.88
2022-08-30T08:34:54.641Z,112.50
2022-08-30T08:35:54.882Z,112.50
2022-08-30T08:36:54.857Z,118.12
2022-08-30T08:37:54.832Z,118.12
2022-08-30T08:38:55.625Z,118.12
2022-08-30T08:39:54.814Z,118.12
2022-08-30T08:40:54.829Z,118.12
2022-08-30T08:41:54.565Z,118.12
2022-08-30T08:42:55.610Z,123.75
2022-08-30T08:43:55.550Z,123.75
2022-08-30T08:44:55.898Z,123.75
2022-08-30T08:45:54.863Z,129.38
2022-08-30T08:46:54.518Z,129.38
2022-08-30T08:47:54.736Z,135.00
2022-08-30T08:49:01.668Z,135.00
2022-08-30T08:49:56.494Z,140.62
2022-08-30T08:50:55.161Z,140.62
2022-08-30T08:51:55.465Z,140.62
2022-08-30T08:52:54.498Z,140.62
2022-08-30T08:53:55.708Z,140.62
2022-08-30T08:54:55.662Z,140.62
2022-08-30T08:55:54.424Z,140.62
2022-08-30T08:56:54.660Z,140.62
2022-08-30T08:57:54.429Z,140.62
2022-08-30T08:58:54.629Z,140.62
2022-08-30T09:00:17.626Z,146.25
2022-08-30T09:00:54.622Z,151.88
2022-08-30T09:01:54.615Z,151.88
2022-08-30T09:02:55.954Z,151.88
2022-08-30T09:03:55.341Z,163.12
2022-08-30T09:04:54.383Z,168.75
2022-08-30T09:05:54.353Z,168.75
2022-08-30T09:06:54.345Z,180.00
2022-08-30T09:07:54.575Z,185.62
2022-08-30T09:08:54.288Z,191.25
2022-08-30T09:10:09.770Z,191.25
2022-08-30T09:10:54.561Z,191.25
2022-08-30T09:11:57.294Z,180.00
2022-08-30T09:12:59.391Z,174.38
2022-08-30T09:13:55.260Z,174.38
2022-08-30T09:14:55.445Z,174.38
2022-08-30T09:15:55.193Z,180.00
2022-08-30T09:16:55.231Z,185.62
2022-08-30T09:17:54.449Z,191.25
2022-08-30T09:18:55.208Z,196.88
2022-08-30T09:20:01.401Z,191.25
2022-08-30T09:20:55.453Z,191.25
2022-08-30T09:21:54.145Z,196.88
2022-08-30T09:23:01.368Z,196.88
2022-08-30T09:23:54.394Z,191.25
2022-08-30T09:25:15.385Z,191.25
2022-08-30T09:25:54.133Z,185.62
2022-08-30T09:26:54.107Z,185.62
2022-08-30T09:28:15.173Z,185.62
2022-08-30T09:28:54.096Z,185.62
2022-08-30T09:29:57.581Z,185.62
2022-08-30T09:31:01.676Z,185.62
2022-08-30T09:32:10.212Z,180.00
2022-08-30T09:33:16.317Z,174.38
2022-08-30T09:34:09.747Z,168.75
2022-08-30T09:34:54.034Z,174.38
2022-08-30T09:35:57.047Z,168.75
2022-08-30T09:36:55.054Z,174.38
2022-08-30T09:37:53.994Z,180.00
2022-08-30T09:38:54.223Z,191.25
2022-08-30T09:39:54.253Z,191.25
2022-08-30T09:40:55.002Z,191.25
2022-08-30T09:41:54.953Z,185.62
2022-08-30T09:42:54.959Z,196.88
2022-08-30T09:43:54.229Z,202.50
2022-08-30T09:44:54.183Z,191.25
2022-08-30T09:45:53.951Z,191.25
2022-08-30T09:46:53.897Z,185.62
2022-08-30T09:47:54.178Z,174.38
2022-08-30T09:48:55.142Z,163.12
2022-08-30T09:49:54.121Z,146.25
2022-08-30T09:51:00.996Z,151.88
2022-08-30T09:51:54.071Z,157.50
2022-08-30T09:52:55.586Z,163.12
2022-08-30T09:54:16.638Z,168.75
2022-08-30T09:54:55.087Z,168.75
2022-08-30T09:55:53.821Z,185.62
2022-08-30T09:56:53.806Z,180.00
2022-08-30T09:57:53.790Z,163.12
2022-08-30T09:58:54.790Z,157.50
2022-08-30T09:59:53.791Z,151.88
2022-08-30T10:00:57.058Z,163.12
2022-08-30T10:01:54.837Z,168.75
2022-08-30T10:02:53.753Z,163.12
2022-08-30T10:03:53.959Z,168.75
2022-08-30T10:04:53.951Z,163.12
2022-08-30T10:05:53.737Z,151.88
2022-08-30T10:06:54.967Z,157.50
2022-08-30T10:07:53.918Z,180.00
2022-08-30T10:08:53.896Z,191.25
2022-08-30T10:09:53.914Z,174.38
2022-08-30T10:10:53.908Z,163.12
2022-08-30T10:11:54.880Z,163.12
2022-08-30T10:12:54.896Z,174.38
2022-08-30T10:13:53.614Z,168.75
2022-08-30T10:14:56.642Z,168.75
2022-08-30T10:15:53.843Z,168.75
2022-08-30T10:16:56.663Z,157.50
2022-08-30T10:17:54.611Z,146.25
2022-08-30T10:18:53.814Z,140.62
2022-08-30T10:19:53.604Z,135.00
2022-08-30T10:20:54.033Z,129.38
2022-08-30T10:21:53.544Z,118.12
2022-08-30T10:22:53.784Z,123.75
2022-08-30T10:23:56.571Z,135.00
2022-08-30T10:24:53.765Z,129.38
2022-08-30T10:25:56.521Z,123.75
2022-08-30T10:26:53.513Z,118.12
2022-08-30T10:27:53.508Z,118.12
2022-08-30T10:28:56.787Z,112.50
2022-08-30T10:29:54.701Z,112.50
2022-08-30T10:30:53.693Z,112.50
2022-08-30T10:31:53.457Z,112.50
2022-08-30T10:32:53.445Z,112.50
2022-08-30T10:34:00.687Z,112.50
2022-08-30T10:34:54.436Z,106.88
2022-08-30T10:35:53.628Z,101.25
2022-08-30T10:37:00.863Z,112.50
2022-08-30T10:37:54.648Z,112.50
2022-08-30T10:38:53.638Z,112.50
2022-08-30T10:40:15.417Z,112.50
2022-08-30T10:40:53.581Z,112.50
2022-08-30T10:41:53.357Z,112.50
2022-08-30T10:42:56.368Z,112.50
2022-08-30T10:43:53.340Z,112.50
2022-08-30T10:45:08.568Z,106.88
2022-08-30T10:45:56.561Z,106.88
2022-08-30T10:46:54.305Z,106.88
2022-08-30T10:47:54.318Z,106.88
2022-08-30T10:48:53.282Z,106.88
2022-08-30T10:49:56.281Z,106.88
2022-08-30T10:50:53.240Z,106.88
2022-08-30T10:51:53.484Z,106.88
2022-08-30T10:53:17.372Z,106.88
2022-08-30T10:53:53.228Z,106.88
2022-08-30T10:54:53.339Z,106.88
2022-08-30T10:55:53.413Z,101.25
2022-08-30T10:56:53.140Z,101.25
2022-08-30T10:57:53.239Z,95.62
2022-08-30T10:58:56.181Z,95.62
2022-08-30T10:59:53.173Z,95.62
2022-08-30T11:01:00.421Z,90.00
2022-08-30T11:01:53.422Z,95.62
2022-08-30T11:02:56.154Z,106.88
2022-08-30T11:03:53.339Z,112.50
2022-08-30T11:04:53.147Z,106.88
2022-08-30T11:05:54.130Z,106.88
2022-08-30T11:07:14.312Z,101.25
2022-08-30T11:07:53.085Z,101.25
2022-08-30T11:08:53.064Z,101.25
2022-08-30T11:09:53.095Z,101.25
2022-08-30T11:10:54.117Z,101.25
2022-08-30T11:11:53.507Z,101.25
2022-08-30T11:13:00.840Z,95.62
2022-08-30T11:13:56.991Z,95.62
2022-08-30T11:15:00.309Z,95.62
2022-08-30T11:15:53.988Z,95.62
2022-08-30T11:16:54.243Z,95.62
2022-08-30T11:17:54.023Z,95.62
2022-08-30T11:18:53.205Z,95.62
2022-08-30T11:19:56.831Z,95.62
2022-08-30T11:20:52.966Z,95.62
2022-08-30T11:21:52.945Z,95.62
2022-08-30T11:22:53.961Z,95.62
2022-08-30T11:24:00.200Z,95.62
2022-08-30T11:24:52.910Z,95.62
2022-08-30T11:25:55.198Z,95.62
2022-08-30T11:26:54.124Z,95.62
2022-08-30T11:27:53.095Z,95.62
2022-08-30T11:28:54.149Z,95.62
2022-08-30T11:29:53.087Z,95.62
2022-08-30T11:30:53.068Z,95.62
2022-08-30T11:31:52.829Z,95.62
2022-08-30T11:32:54.048Z,95.62
2022-08-30T11:33:52.831Z,101.25
2022-08-30T11:34:53.047Z,95.62
2022-08-30T11:35:53.033Z,95.62
2022-08-30T11:36:52.841Z,90.00
2022-08-30T11:37:53.805Z,90.00
2022-08-30T11:38:52.748Z,95.62
2022-08-30T11:39:52.970Z,95.62
2022-08-30T11:40:52.981Z,95.62
2022-08-30T11:41:52.792Z,95.62
2022-08-30T11:42:52.745Z,95.62
2022-08-30T11:43:59.799Z,95.62
2022-08-30T11:44:53.932Z,95.62
2022-08-30T11:45:54.034Z,95.62
2022-08-30T11:46:52.703Z,90.00
2022-08-30T11:47:52.661Z,90.00
2022-08-30T11:48:55.889Z,90.00
2022-08-30T11:49:52.704Z,90.00
2022-08-30T11:51:16.684Z,90.00
2022-08-30T11:52:08.355Z,90.00
2022-08-30T11:52:53.635Z,90.00
2022-08-30T11:53:54.196Z,84.38
2022-08-30T11:54:53.604Z,84.38
2022-08-30T11:55:53.862Z,84.38
2022-08-30T11:56:52.583Z,90.00
2022-08-30T11:57:52.586Z,90.00
2022-08-30T11:58:52.828Z,90.00
2022-08-30T11:59:53.846Z,90.00
2022-08-30T12:01:20.629Z,90.00
2022-08-30T12:01:53.540Z,90.00
2022-08-30T12:02:52.623Z,90.00
2022-08-30T12:03:53.548Z,84.38
2022-08-30T12:04:52.502Z,84.38
2022-08-30T12:05:53.505Z,84.38
2022-08-30T12:06:52.728Z,84.38
2022-08-30T12:07:52.765Z,90.00
2022-08-30T12:08:56.554Z,90.00
2022-08-30T12:09:53.484Z,84.38
2022-08-30T12:10:59.515Z,84.38
2022-08-30T12:11:52.653Z,84.38
2022-08-30T12:12:52.428Z,84.38
2022-08-30T12:13:52.647Z,90.00
2022-08-30T12:14:52.395Z,90.00
2022-08-30T12:15:52.712Z,90.00
2022-08-30T12:16:52.418Z,84.38
2022-08-30T12:17:52.409Z,84.38
2022-08-30T12:18:52.610Z,84.38
2022-08-30T12:19:55.620Z,84.38
2022-08-30T12:20:54.008Z,84.38
2022-08-30T12:21:55.349Z,84.38
2022-08-30T12:22:52.420Z,84.38
2022-08-30T12:23:52.365Z,84.38
2022-08-30T12:24:52.294Z,84.38
2022-08-30T12:25:52.290Z,84.38
2022-08-30T12:26:53.302Z,84.38
2022-08-30T12:27:55.292Z,84.38
2022-08-30T12:28:59.532Z,78.75
2022-08-30T12:29:52.279Z,78.75
2022-08-30T12:30:52.454Z,78.75
2022-08-30T12:31:52.512Z,78.75
2022-08-30T12:32:53.235Z,78.75
2022-08-30T12:33:55.240Z,78.75
2022-08-30T12:34:52.462Z,78.75
2022-08-30T12:35:52.252Z,84.38
2022-08-30T12:36:53.215Z,84.38
2022-08-30T12:37:55.214Z,78.75
2022-08-30T12:38:52.164Z,78.75
2022-08-30T12:39:53.817Z,78.75
2022-08-30T12:40:52.375Z,78.75
2022-08-30T12:42:17.705Z,78.75
2022-08-30T12:42:52.103Z,78.75
2022-08-30T12:44:13.103Z,67.50
2022-08-30T12:44:52.573Z,78.75
2022-08-30T12:45:52.128Z,78.75
2022-08-30T12:46:57.174Z,78.75
2022-08-30T12:47:53.285Z,78.75
2022-08-30T12:48:52.031Z,84.38
2022-08-30T12:49:52.077Z,84.38
2022-08-30T12:50:52.258Z,84.38
2022-08-30T12:51:55.045Z,78.75
2022-08-30T12:52:53.019Z,73.12
2022-08-30T12:53:52.013Z,78.75
2022-08-30T12:54:53.265Z,73.12
2022-08-30T12:55:52.263Z,78.75
2022-08-30T12:56:54.996Z,78.75
2022-08-30T12:57:52.219Z,78.75